createdAt,value
2018-10-07T00:00:03.999Z,985.03
2018-10-07T00:01:03.998Z,985.08
2018-10-07T00:02:03.985Z,985.01
2018-10-07T00:03:03.976Z,985.05
2018-10-07T00:04:04.016Z,985.08
2018-10-07T00:05:03.998Z,985.06
2018-10-07T00:06:03.940Z,985.00
2018-10-07T00:07:03.912Z,985.02
2018-10-07T00:08:03.911Z,985.00
2018-10-07T00:09:03.889Z,985.03
2018-10-07T00:10:03.901Z,984.94
2018-10-07T00:11:03.887Z,984.97
2018-10-07T00:12:03.859Z,984.94
2018-10-07T00:13:03.862Z,984.94
2018-10-07T00:14:03.850Z,984.93
2018-10-07T00:15:03.859Z,984.87
2018-10-07T00:16:03.843Z,984.90
2018-10-07T00:17:03.809Z,984.89
2018-10-07T00:18:03.801Z,984.91
2018-10-07T00:19:03.790Z,984.97
2018-10-07T00:20:03.793Z,984.92
2018-10-07T00:21:03.767Z,984.85
2018-10-07T00:22:03.752Z,984.82
2018-10-07T00:23:03.774Z,984.85
2018-10-07T00:24:03.753Z,984.87
2018-10-07T00:25:03.749Z,984.88
2018-10-07T00:26:03.731Z,984.90
2018-10-07T00:27:03.702Z,984.86
2018-10-07T00:28:03.699Z,984.90
2018-10-07T00:29:03.674Z,984.91
2018-10-07T00:30:03.699Z,984.90
2018-10-07T00:31:03.653Z,984.93
2018-10-07T00:32:03.638Z,984.95
2018-10-07T00:33:03.634Z,984.94
2018-10-07T00:34:03.638Z,984.93
2018-10-07T00:35:03.698Z,985.06
2018-10-07T00:36:03.599Z,985.12
2018-10-07T00:37:03.614Z,985.08
2018-10-07T00:38:03.582Z,984.99
2018-10-07T00:39:03.626Z,984.96
2018-10-07T00:40:03.585Z,984.92
2018-10-07T00:41:03.572Z,984.94
2018-10-07T00:42:03.563Z,985.05
2018-10-07T00:43:03.575Z,985.11
2018-10-07T00:44:03.519Z,985.19
2018-10-07T00:45:03.569Z,985.16
2018-10-07T00:46:03.516Z,985.11
2018-10-07T00:47:03.519Z,985.13
2018-10-07T00:48:03.479Z,985.05
2018-10-07T00:49:03.506Z,985.12
2018-10-07T00:50:03.469Z,985.16
2018-10-07T00:51:03.434Z,985.19
2018-10-07T00:52:03.423Z,985.20
2018-10-07T00:53:03.417Z,985.22
2018-10-07T00:54:03.409Z,985.26
2018-10-07T00:55:03.422Z,985.28
2018-10-07T00:56:03.439Z,985.28
2018-10-07T00:57:03.417Z,985.40
2018-10-07T00:58:03.362Z,985.41
2018-10-07T00:59:03.362Z,985.41
2018-10-07T01:00:03.359Z,985.44
2018-10-07T01:01:03.330Z,985.55
2018-10-07T01:02:03.340Z,985.57
2018-10-07T01:03:03.311Z,985.57
2018-10-07T01:04:03.311Z,985.58
2018-10-07T01:05:03.295Z,985.64
2018-10-07T01:06:03.271Z,985.64
2018-10-07T01:07:03.279Z,985.64
2018-10-07T01:08:03.272Z,985.65
2018-10-07T01:09:03.237Z,985.64
2018-10-07T01:10:03.249Z,985.68
2018-10-07T01:11:03.217Z,985.71
2018-10-07T01:12:03.206Z,985.66
2018-10-07T01:13:03.199Z,985.72
2018-10-07T01:14:03.219Z,985.71
2018-10-07T01:15:03.243Z,985.72
2018-10-07T01:16:03.207Z,985.83
2018-10-07T01:17:03.152Z,985.68
2018-10-07T01:18:03.153Z,985.77
2018-10-07T01:19:03.148Z,985.77
2018-10-07T01:20:03.153Z,985.77
2018-10-07T01:21:03.140Z,985.83
2018-10-07T01:22:03.143Z,985.80
2018-10-07T01:23:03.126Z,985.79
2018-10-07T01:24:03.155Z,985.79
2018-10-07T01:25:03.100Z,985.81
2018-10-07T01:26:03.078Z,985.74
2018-10-07T01:27:03.057Z,985.80
2018-10-07T01:28:03.067Z,985.79
2018-10-07T01:29:03.090Z,985.77
2018-10-07T01:30:03.054Z,985.74
2018-10-07T01:31:03.025Z,985.87
2018-10-07T01:32:03.025Z,985.79
2018-10-07T01:33:02.981Z,985.79
2018-10-07T01:34:02.992Z,985.82
2018-10-07T01:35:02.990Z,985.80
2018-10-07T01:36:02.962Z,985.86
2018-10-07T01:37:02.956Z,985.86
2018-10-07T01:38:02.927Z,985.87
2018-10-07T01:39:02.918Z,985.89
2018-10-07T01:40:02.942Z,985.89
2018-10-07T01:41:02.913Z,985.87
2018-10-07T01:42:02.891Z,985.88
2018-10-07T01:43:02.921Z,985.83
2018-10-07T01:44:02.887Z,985.84
2018-10-07T01:45:02.906Z,985.80
2018-10-07T01:46:02.892Z,985.82
2018-10-07T01:47:02.866Z,985.83
2018-10-07T01:48:02.838Z,985.89
2018-10-07T01:49:02.832Z,985.84
2018-10-07T01:50:02.842Z,985.85
2018-10-07T01:51:02.802Z,985.85
2018-10-07T01:52:02.872Z,985.79
2018-10-07T01:53:02.788Z,985.84
2018-10-07T01:54:02.774Z,985.84
2018-10-07T01:55:02.807Z,985.83
2018-10-07T01:56:02.763Z,985.83
2018-10-07T01:57:02.781Z,985.83
2018-10-07T01:58:02.777Z,985.89
2018-10-07T01:59:02.730Z,985.84
2018-10-07T02:00:02.724Z,985.84
2018-10-07T02:01:02.691Z,985.80
2018-10-07T02:02:02.689Z,985.87
2018-10-07T02:03:02.673Z,985.85
2018-10-07T02:04:02.673Z,985.81
2018-10-07T02:05:02.691Z,985.85
2018-10-07T02:06:02.631Z,985.87
2018-10-07T02:07:02.667Z,985.83
2018-10-07T02:08:02.614Z,985.83
2018-10-07T02:09:02.664Z,985.87
2018-10-07T02:10:02.665Z,985.83
2018-10-07T02:11:02.593Z,985.81
2018-10-07T02:12:02.591Z,985.88
2018-10-07T02:13:02.576Z,985.80
2018-10-07T02:14:02.726Z,985.80
2018-10-07T02:15:02.560Z,985.81
2018-10-07T02:16:02.594Z,985.80
2018-10-07T02:17:02.748Z,985.79
2018-10-07T02:18:02.500Z,985.83
2018-10-07T02:19:02.502Z,985.81
2018-10-07T02:20:02.552Z,985.79
2018-10-07T02:21:02.530Z,985.82
2018-10-07T02:22:02.472Z,985.82
2018-10-07T02:23:02.461Z,985.83
2018-10-07T02:24:02.490Z,985.80
2018-10-07T02:25:02.462Z,985.77
2018-10-07T02:26:02.415Z,985.81
2018-10-07T02:27:02.429Z,985.78
2018-10-07T02:28:02.394Z,985.86
2018-10-07T02:29:02.383Z,985.82
2018-10-07T02:30:02.427Z,985.78
2018-10-07T02:31:02.366Z,985.85
2018-10-07T02:32:02.351Z,985.89
2018-10-07T02:33:02.340Z,985.86
2018-10-07T02:34:02.335Z,985.86
2018-10-07T02:35:02.355Z,985.94
2018-10-07T02:36:02.324Z,985.91
2018-10-07T02:37:02.308Z,985.92
2018-10-07T02:38:02.308Z,985.96
2018-10-07T02:39:02.286Z,985.97
2018-10-07T02:40:02.424Z,985.98
2018-10-07T02:41:02.285Z,985.96
2018-10-07T02:42:02.265Z,986.00
2018-10-07T02:43:02.258Z,986.03
2018-10-07T02:44:02.227Z,986.02
2018-10-07T02:45:02.247Z,986.00
2018-10-07T02:46:02.204Z,986.01
2018-10-07T02:47:02.191Z,986.01
2018-10-07T02:48:02.199Z,986.01
2018-10-07T02:49:02.189Z,986.00
2018-10-07T02:50:02.191Z,986.04
2018-10-07T02:51:02.186Z,986.05
2018-10-07T02:52:02.165Z,986.03
2018-10-07T02:53:02.227Z,986.03
2018-10-07T02:54:02.129Z,986.07
2018-10-07T02:55:02.184Z,986.15
2018-10-07T02:56:02.104Z,986.13
2018-10-07T02:57:02.101Z,986.08
2018-10-07T02:58:02.113Z,986.14
2018-10-07T02:59:02.085Z,986.10
2018-10-07T03:00:02.125Z,986.18
2018-10-07T03:01:02.051Z,986.21
2018-10-07T03:02:02.090Z,986.20
2018-10-07T03:03:02.078Z,986.23
2018-10-07T03:04:02.032Z,986.22
2018-10-07T03:05:02.021Z,986.24
2018-10-07T03:06:02.021Z,986.24
2018-10-07T03:07:02.018Z,986.18
2018-10-07T03:08:01.971Z,986.21
2018-10-07T03:09:02.003Z,986.22
2018-10-07T03:10:02.049Z,986.20
2018-10-07T03:11:01.991Z,986.22
2018-10-07T03:12:01.969Z,986.23
2018-10-07T03:13:01.928Z,986.25
2018-10-07T03:14:01.931Z,986.24
2018-10-07T03:15:01.927Z,986.25
2018-10-07T03:16:01.961Z,986.26
2018-10-07T03:17:01.916Z,986.31
2018-10-07T03:18:01.904Z,986.32
2018-10-07T03:19:01.911Z,986.35
2018-10-07T03:20:01.879Z,986.34
2018-10-07T03:21:01.882Z,986.33
2018-10-07T03:22:01.857Z,986.34
2018-10-07T03:23:01.835Z,986.36
2018-10-07T03:24:01.849Z,986.37
2018-10-07T03:25:01.842Z,986.34
2018-10-07T03:26:01.793Z,986.39
2018-10-07T03:27:01.795Z,986.36
2018-10-07T03:28:01.764Z,986.41
2018-10-07T03:29:01.769Z,986.42
2018-10-07T03:30:01.740Z,986.41
2018-10-07T03:31:01.777Z,986.42
2018-10-07T03:32:01.739Z,986.39
2018-10-07T03:33:01.721Z,986.43
2018-10-07T03:34:01.709Z,986.47
2018-10-07T03:35:01.701Z,986.48
2018-10-07T03:36:01.694Z,986.54
2018-10-07T03:37:01.667Z,986.48
2018-10-07T03:38:01.714Z,986.48
2018-10-07T03:39:01.693Z,986.49
2018-10-07T03:40:01.657Z,986.53
2018-10-07T03:41:01.657Z,986.57
2018-10-07T03:42:01.665Z,986.55
2018-10-07T03:43:01.624Z,986.50
2018-10-07T03:44:01.590Z,986.58
2018-10-07T03:45:01.621Z,986.53
2018-10-07T03:46:01.618Z,986.53
2018-10-07T03:47:01.552Z,986.58
2018-10-07T03:48:01.591Z,986.55
2018-10-07T03:49:01.547Z,986.61
2018-10-07T03:50:01.530Z,986.64
2018-10-07T03:51:01.535Z,986.61
2018-10-07T03:52:01.514Z,986.65
2018-10-07T03:53:01.481Z,986.66
2018-10-07T03:54:01.485Z,986.63
2018-10-07T03:55:01.515Z,986.65
2018-10-07T03:56:01.486Z,986.63
2018-10-07T03:57:01.442Z,986.64
2018-10-07T03:58:01.451Z,986.67
2018-10-07T03:59:01.420Z,986.65
2018-10-07T04:00:01.416Z,986.67
2018-10-07T04:01:01.457Z,986.63
2018-10-07T04:02:01.386Z,986.72
2018-10-07T04:03:01.377Z,986.71
2018-10-07T04:04:01.366Z,986.64
2018-10-07T04:05:01.353Z,986.67
2018-10-07T04:06:01.375Z,986.67
2018-10-07T04:07:01.361Z,986.72
2018-10-07T04:08:01.321Z,986.73
2018-10-07T04:09:01.309Z,986.80
2018-10-07T04:10:01.314Z,986.75
2018-10-07T04:11:01.301Z,986.73
2018-10-07T04:12:01.277Z,986.78
2018-10-07T04:13:01.279Z,986.78
2018-10-07T04:14:01.274Z,986.84
2018-10-07T04:15:01.275Z,986.73
2018-10-07T04:16:01.253Z,986.76
2018-10-07T04:17:01.225Z,986.73
2018-10-07T04:18:01.212Z,986.75
2018-10-07T04:19:01.206Z,986.76
2018-10-07T04:20:01.203Z,986.73
2018-10-07T04:21:01.216Z,986.76
2018-10-07T04:22:01.171Z,986.80
2018-10-07T04:23:01.166Z,986.80
2018-10-07T04:24:01.149Z,986.76
2018-10-07T04:25:01.137Z,986.77
2018-10-07T04:26:01.141Z,986.79
2018-10-07T04:27:01.138Z,986.77
2018-10-07T04:28:01.108Z,986.80
2018-10-07T04:29:01.094Z,986.78
2018-10-07T04:30:01.084Z,986.77
2018-10-07T04:31:01.089Z,986.72
2018-10-07T04:32:01.062Z,986.72
2018-10-07T04:33:01.080Z,986.70
2018-10-07T04:34:01.042Z,986.70
2018-10-07T04:35:01.031Z,986.76
2018-10-07T04:36:01.037Z,986.73
2018-10-07T04:37:01.009Z,986.70
2018-10-07T04:38:01.000Z,986.73
2018-10-07T04:39:01.011Z,986.74
2018-10-07T04:40:01.040Z,986.71
2018-10-07T04:41:00.982Z,986.75
2018-10-07T04:42:00.955Z,986.72
2018-10-07T04:43:00.944Z,986.78
2018-10-07T04:44:00.940Z,986.72
2018-10-07T04:45:00.922Z,986.77
2018-10-07T04:46:00.967Z,986.76
2018-10-07T04:47:00.901Z,986.86
2018-10-07T04:48:00.893Z,986.74
2018-10-07T04:49:00.882Z,986.75
2018-10-07T04:50:00.883Z,986.77
2018-10-07T04:51:00.872Z,986.72
2018-10-07T04:52:00.861Z,986.72
2018-10-07T04:53:00.862Z,986.77
2018-10-07T04:54:00.839Z,986.74
2018-10-07T04:55:00.819Z,986.78
2018-10-07T04:56:00.819Z,986.76
2018-10-07T04:57:00.794Z,986.77
2018-10-07T04:58:00.782Z,986.81
2018-10-07T04:59:00.791Z,986.77
2018-10-07T05:00:00.823Z,986.76
2018-10-07T05:01:00.849Z,986.80
2018-10-07T05:02:00.744Z,986.81
2018-10-07T05:03:00.741Z,986.88
2018-10-07T05:04:00.748Z,986.86
2018-10-07T05:05:00.746Z,986.84
2018-10-07T05:06:00.741Z,986.80
2018-10-07T05:07:00.701Z,986.86
2018-10-07T05:08:00.699Z,986.88
2018-10-07T05:09:00.723Z,986.85
2018-10-07T05:10:00.680Z,986.87
2018-10-07T05:11:00.657Z,986.89
2018-10-07T05:12:00.678Z,986.91
2018-10-07T05:13:00.642Z,986.85
2018-10-07T05:14:00.633Z,986.90
2018-10-07T05:15:00.617Z,986.88
2018-10-07T05:16:00.604Z,986.88
2018-10-07T05:17:00.585Z,986.96
2018-10-07T05:18:00.584Z,986.91
2018-10-07T05:19:00.564Z,986.97
2018-10-07T05:20:00.578Z,986.93
2018-10-07T05:21:00.658Z,986.94
2018-10-07T05:22:00.571Z,986.99
2018-10-07T05:23:00.562Z,986.98
2018-10-07T05:24:00.551Z,987.01
2018-10-07T05:25:00.538Z,987.02
2018-10-07T05:26:00.548Z,987.04
2018-10-07T05:27:00.503Z,987.00
2018-10-07T05:28:00.528Z,987.10
2018-10-07T05:29:00.495Z,987.13
2018-10-07T05:30:00.471Z,987.11
2018-10-07T05:31:00.520Z,987.18
2018-10-07T05:32:00.453Z,987.16
2018-10-07T05:33:00.429Z,987.15
2018-10-07T05:34:00.494Z,987.17
2018-10-07T05:35:00.405Z,987.16
2018-10-07T05:36:00.400Z,987.11
2018-10-07T05:37:00.393Z,987.12
2018-10-07T05:38:00.354Z,987.15
2018-10-07T05:39:00.363Z,987.19
2018-10-07T05:40:00.370Z,987.18
2018-10-07T05:41:00.326Z,987.20
2018-10-07T05:42:00.359Z,987.24
2018-10-07T05:43:00.301Z,987.17
2018-10-07T05:44:00.291Z,987.25
2018-10-07T05:45:00.296Z,987.25
2018-10-07T05:46:00.288Z,987.28
2018-10-07T05:47:00.297Z,987.27
2018-10-07T05:48:00.256Z,987.28
2018-10-07T05:49:00.249Z,987.29
2018-10-07T05:50:00.240Z,987.31
2018-10-07T05:51:00.235Z,987.27
2018-10-07T05:52:00.241Z,987.33
2018-10-07T05:53:00.264Z,987.31
2018-10-07T05:54:00.201Z,987.36
2018-10-07T05:55:00.193Z,987.40
2018-10-07T05:56:00.193Z,987.39
2018-10-07T05:57:00.163Z,987.46
2018-10-07T05:58:00.182Z,987.41
2018-10-07T05:59:00.132Z,987.44
2018-10-07T06:00:00.118Z,987.47
2018-10-07T06:01:00.143Z,987.41
2018-10-07T06:02:00.189Z,987.44
2018-10-07T06:03:00.133Z,987.48
2018-10-07T06:04:00.102Z,987.54
2018-10-07T06:05:00.078Z,987.44
2018-10-07T06:06:00.075Z,987.46
2018-10-07T06:07:00.079Z,987.49
2018-10-07T06:08:00.057Z,987.51
2018-10-07T06:09:00.050Z,987.50
2018-10-07T06:10:00.043Z,987.47
2018-10-07T06:11:00.002Z,987.46
2018-10-07T06:12:00.020Z,987.48
2018-10-07T06:13:00.025Z,987.48
2018-10-07T06:14:00.026Z,987.50
2018-10-07T06:15:00.065Z,987.52
2018-10-07T06:16:00.025Z,987.53
2018-10-07T06:16:59.994Z,987.57
2018-10-07T06:17:59.983Z,987.52
2018-10-07T06:18:59.952Z,987.60
2018-10-07T06:19:59.945Z,987.64
2018-10-07T06:20:59.953Z,987.67
2018-10-07T06:21:59.939Z,987.69
2018-10-07T06:22:59.912Z,987.70
2018-10-07T06:23:59.889Z,987.74
2018-10-07T06:24:59.873Z,987.69
2018-10-07T06:25:59.841Z,987.73
2018-10-07T06:26:59.869Z,987.71
2018-10-07T06:27:59.817Z,987.71
2018-10-07T06:28:59.807Z,987.69
2018-10-07T06:29:59.902Z,987.66
2018-10-07T06:30:59.811Z,987.63
2018-10-07T06:31:59.787Z,987.69
2018-10-07T06:32:59.764Z,987.64
2018-10-07T06:33:59.751Z,987.58
2018-10-07T06:34:59.741Z,987.63
2018-10-07T06:35:59.750Z,987.63
2018-10-07T06:36:59.746Z,987.61
2018-10-07T06:37:59.784Z,987.64
2018-10-07T06:38:59.711Z,987.65
2018-10-07T06:39:59.770Z,987.62
2018-10-07T06:40:59.718Z,987.72
2018-10-07T06:41:59.691Z,987.67
2018-10-07T06:42:59.683Z,987.71
2018-10-07T06:43:59.683Z,987.75
2018-10-07T06:44:59.677Z,987.75
2018-10-07T06:45:59.758Z,987.77
2018-10-07T06:46:59.651Z,987.76
2018-10-07T06:47:59.632Z,987.75
2018-10-07T06:48:59.613Z,987.74
2018-10-07T06:49:59.591Z,987.71
2018-10-07T06:50:59.644Z,987.77
2018-10-07T06:51:59.604Z,987.71
2018-10-07T06:52:59.592Z,987.78
2018-10-07T06:53:59.579Z,987.75
2018-10-07T06:54:59.542Z,987.75
2018-10-07T06:55:59.546Z,987.74
2018-10-07T06:56:59.524Z,987.82
2018-10-07T06:57:59.573Z,987.78
2018-10-07T06:58:59.530Z,987.77
2018-10-07T06:59:59.479Z,987.79
2018-10-07T07:00:59.473Z,987.78
2018-10-07T07:01:59.465Z,987.78
2018-10-07T07:02:59.479Z,987.82
2018-10-07T07:03:59.429Z,987.84
2018-10-07T07:04:59.438Z,987.84
2018-10-07T07:05:59.427Z,987.86
2018-10-07T07:06:59.468Z,987.87
2018-10-07T07:07:59.438Z,987.94
2018-10-07T07:08:59.410Z,987.93
2018-10-07T07:09:59.405Z,987.91
2018-10-07T07:10:59.401Z,987.92
2018-10-07T07:11:59.361Z,987.94
2018-10-07T07:12:59.412Z,987.98
2018-10-07T07:13:59.337Z,987.95
2018-10-07T07:14:59.351Z,987.95
2018-10-07T07:15:59.300Z,987.96
2018-10-07T07:16:59.365Z,988.03
2018-10-07T07:17:59.818Z,988.02
2018-10-07T07:18:59.283Z,988.01
2018-10-07T07:19:59.350Z,988.05
2018-10-07T07:20:59.281Z,988.00
2018-10-07T07:21:59.235Z,987.99
2018-10-07T07:22:59.254Z,988.05
2018-10-07T07:23:59.254Z,988.01
2018-10-07T07:24:59.232Z,988.10
2018-10-07T07:25:59.226Z,988.10
2018-10-07T07:26:59.243Z,988.05
2018-10-07T07:27:59.212Z,988.09
2018-10-07T07:28:59.173Z,988.09
2018-10-07T07:29:59.183Z,988.05
2018-10-07T07:30:59.172Z,988.14
2018-10-07T07:31:59.135Z,988.13
2018-10-07T07:32:59.177Z,988.09
2018-10-07T07:33:59.121Z,988.17
2018-10-07T07:34:59.118Z,988.13
2018-10-07T07:35:59.104Z,988.13
2018-10-07T07:36:59.187Z,988.14
2018-10-07T07:37:59.095Z,988.19
2018-10-07T07:38:59.104Z,988.21
2018-10-07T07:39:59.082Z,988.19
2018-10-07T07:40:59.044Z,988.20
2018-10-07T07:41:59.066Z,988.16
2018-10-07T07:42:59.040Z,988.15
2018-10-07T07:43:59.103Z,988.21
2018-10-07T07:44:59.001Z,988.21
2018-10-07T07:45:59.000Z,988.27
2018-10-07T07:46:58.980Z,988.27
2018-10-07T07:47:58.961Z,988.27
2018-10-07T07:48:59.007Z,988.25
2018-10-07T07:49:58.950Z,988.29
2018-10-07T07:50:58.938Z,988.33
2018-10-07T07:51:58.915Z,988.31
2018-10-07T07:52:58.913Z,988.32
2018-10-07T07:53:58.937Z,988.35
2018-10-07T07:54:58.926Z,988.40
2018-10-07T07:55:58.885Z,988.36
2018-10-07T07:56:58.874Z,988.39
2018-10-07T07:57:58.873Z,988.36
2018-10-07T07:58:58.880Z,988.35
2018-10-07T07:59:58.894Z,988.36
2018-10-07T08:00:58.833Z,988.40
2018-10-07T08:01:58.824Z,988.42
2018-10-07T08:02:58.802Z,988.47
2018-10-07T08:03:58.802Z,988.45
2018-10-07T08:04:58.772Z,988.47
2018-10-07T08:05:58.783Z,988.51
2018-10-07T08:06:58.765Z,988.55
2018-10-07T08:07:58.765Z,988.55
2018-10-07T08:08:58.814Z,988.60
2018-10-07T08:09:58.737Z,988.58
2018-10-07T08:10:58.721Z,988.59
2018-10-07T08:11:58.713Z,988.59
2018-10-07T08:12:58.713Z,988.63
2018-10-07T08:13:58.736Z,988.62
2018-10-07T08:14:58.730Z,988.63
2018-10-07T08:15:58.669Z,988.58
2018-10-07T08:16:58.662Z,988.55
2018-10-07T08:17:58.756Z,988.64
2018-10-07T08:18:58.659Z,988.59
2018-10-07T08:19:58.640Z,988.64
2018-10-07T08:20:58.623Z,988.61
2018-10-07T08:21:58.613Z,988.60
2018-10-07T08:22:58.593Z,988.59
2018-10-07T08:23:58.704Z,988.61
2018-10-07T08:24:58.594Z,988.62
2018-10-07T08:25:58.591Z,988.62
2018-10-07T08:26:58.544Z,988.63
2018-10-07T08:27:58.692Z,988.64
2018-10-07T08:28:58.534Z,988.63
2018-10-07T08:29:58.565Z,988.65
2018-10-07T08:30:58.499Z,988.63
2018-10-07T08:31:58.487Z,988.62
2018-10-07T08:32:58.472Z,988.58
2018-10-07T08:33:58.477Z,988.60
2018-10-07T08:34:58.482Z,988.60
2018-10-07T08:35:58.445Z,988.61
2018-10-07T08:36:58.443Z,988.61
2018-10-07T08:37:58.453Z,988.63
2018-10-07T08:38:58.441Z,988.65
2018-10-07T08:39:58.446Z,988.63
2018-10-07T08:40:58.419Z,988.63
2018-10-07T08:41:58.390Z,988.68
2018-10-07T08:42:58.394Z,988.71
2018-10-07T08:43:58.401Z,988.69
2018-10-07T08:44:58.375Z,988.73
2018-10-07T08:45:58.344Z,988.73
2018-10-07T08:46:58.378Z,988.73
2018-10-07T08:47:58.312Z,988.72
2018-10-07T08:48:58.341Z,988.75
2018-10-07T08:49:58.431Z,988.76
2018-10-07T08:50:58.291Z,988.75
2018-10-07T08:51:58.280Z,988.76
2018-10-07T08:52:58.279Z,988.72
2018-10-07T08:53:58.294Z,988.67
2018-10-07T08:54:58.240Z,988.67
2018-10-07T08:55:58.327Z,988.72
2018-10-07T08:56:58.218Z,988.70
2018-10-07T08:57:58.222Z,988.72
2018-10-07T08:58:58.213Z,988.73
2018-10-07T08:59:58.190Z,988.74
2018-10-07T09:00:58.173Z,988.76
2018-10-07T09:01:58.248Z,988.71
2018-10-07T09:02:58.157Z,988.72
2018-10-07T09:03:58.157Z,988.75
2018-10-07T09:04:58.147Z,988.78
2018-10-07T09:05:58.138Z,988.71
2018-10-07T09:06:58.113Z,988.75
2018-10-07T09:07:58.107Z,988.75
2018-10-07T09:08:58.198Z,988.72
2018-10-07T09:09:58.201Z,988.79
2018-10-07T09:10:58.070Z,988.81
2018-10-07T09:11:58.062Z,988.77
2018-10-07T09:12:58.170Z,988.75
2018-10-07T09:13:58.315Z,988.80
2018-10-07T09:14:58.028Z,988.85
2018-10-07T09:15:58.015Z,988.88
2018-10-07T09:16:58.519Z,988.83
2018-10-07T09:17:58.137Z,988.87
2018-10-07T09:18:58.000Z,988.81
2018-10-07T09:19:57.975Z,988.86
2018-10-07T09:20:58.064Z,988.86
2018-10-07T09:21:57.973Z,988.91
2018-10-07T09:22:57.946Z,988.90
2018-10-07T09:23:57.976Z,988.91
2018-10-07T09:24:57.923Z,988.93
2018-10-07T09:25:57.926Z,988.99
2018-10-07T09:26:58.007Z,988.91
2018-10-07T09:27:57.946Z,988.91
2018-10-07T09:28:57.893Z,988.92
2018-10-07T09:29:57.891Z,988.99
2018-10-07T09:30:57.913Z,988.95
2018-10-07T09:31:57.844Z,989.03
2018-10-07T09:32:57.963Z,988.99
2018-10-07T09:33:57.843Z,988.94
2018-10-07T09:34:57.812Z,988.92
2018-10-07T09:35:57.809Z,988.99
2018-10-07T09:36:57.809Z,988.96
2018-10-07T09:37:57.778Z,988.92
2018-10-07T09:38:57.791Z,988.97
2018-10-07T09:39:57.859Z,988.93
2018-10-07T09:40:57.750Z,988.96
2018-10-07T09:41:57.739Z,988.96
2018-10-07T09:42:57.734Z,988.96
2018-10-07T09:43:57.745Z,988.95
2018-10-07T09:44:57.744Z,988.93
2018-10-07T09:45:57.694Z,988.96
2018-10-07T09:46:57.709Z,988.99
2018-10-07T09:47:57.674Z,989.00
2018-10-07T09:48:57.688Z,989.04
2018-10-07T09:49:57.674Z,989.01
2018-10-07T09:50:57.647Z,988.99
2018-10-07T09:51:57.637Z,988.98
2018-10-07T09:52:57.911Z,989.00
2018-10-07T09:53:57.630Z,988.97
2018-10-07T09:54:57.614Z,989.00
2018-10-07T09:55:57.609Z,988.96
2018-10-07T09:56:57.592Z,988.96
2018-10-07T09:57:57.595Z,989.00
2018-10-07T09:58:57.576Z,988.96
2018-10-07T09:59:57.553Z,988.96
2018-10-07T10:00:57.555Z,988.99
2018-10-07T10:01:57.534Z,989.02
2018-10-07T10:02:57.523Z,989.04
2018-10-07T10:03:57.600Z,989.04
2018-10-07T10:04:57.529Z,989.02
2018-10-07T10:05:57.501Z,989.03
2018-10-07T10:06:57.528Z,989.05
2018-10-07T10:07:57.497Z,989.05
2018-10-07T10:08:57.471Z,989.05
2018-10-07T10:09:57.448Z,989.03
2018-10-07T10:10:57.636Z,989.04
2018-10-07T10:11:57.429Z,989.05
2018-10-07T10:12:57.415Z,989.09
2018-10-07T10:13:57.421Z,989.07
2018-10-07T10:14:57.404Z,989.01
2018-10-07T10:15:57.410Z,988.99
2018-10-07T10:16:57.374Z,989.03
2018-10-07T10:17:57.375Z,988.98
2018-10-07T10:18:57.371Z,988.94
2018-10-07T10:19:57.390Z,988.97
2018-10-07T10:20:57.334Z,989.02
2018-10-07T10:21:57.331Z,988.99
2018-10-07T10:22:57.390Z,989.00
2018-10-07T10:23:57.316Z,988.94
2018-10-07T10:24:57.297Z,989.03
2018-10-07T10:25:57.293Z,989.04
2018-10-07T10:26:57.305Z,989.05
2018-10-07T10:27:57.265Z,989.03
2018-10-07T10:28:57.271Z,989.04
2018-10-07T10:29:57.250Z,989.07
2018-10-07T10:30:57.236Z,989.08
2018-10-07T10:31:57.224Z,988.77
2018-10-07T10:32:57.216Z,988.80
2018-10-07T10:33:57.250Z,988.87
2018-10-07T10:34:57.194Z,988.89
2018-10-07T10:35:57.201Z,988.92
2018-10-07T10:36:57.309Z,989.03
2018-10-07T10:37:57.162Z,989.27
2018-10-07T10:38:57.173Z,989.00
2018-10-07T10:39:57.188Z,989.02
2018-10-07T10:40:57.132Z,988.94
2018-10-07T10:41:57.122Z,988.97
2018-10-07T10:42:57.110Z,988.94
2018-10-07T10:43:57.115Z,988.98
2018-10-07T10:44:57.104Z,988.95
2018-10-07T10:45:57.092Z,988.95
2018-10-07T10:46:57.180Z,988.93
2018-10-07T10:47:57.076Z,988.91
2018-10-07T10:48:57.065Z,988.93
2018-10-07T10:49:57.036Z,988.97
2018-10-07T10:50:57.029Z,988.93
2018-10-07T10:51:57.021Z,988.97
2018-10-07T10:52:57.030Z,989.03
2018-10-07T10:53:57.030Z,989.01
2018-10-07T10:54:57.008Z,989.02
2018-10-07T10:55:56.985Z,989.01
2018-10-07T10:56:56.976Z,989.04
2018-10-07T10:57:57.007Z,989.02
2018-10-07T10:58:56.942Z,989.00
2018-10-07T10:59:56.959Z,989.00
2018-10-07T11:00:56.993Z,989.03
2018-10-07T11:01:56.916Z,989.05
2018-10-07T11:02:56.898Z,989.03
2018-10-07T11:03:56.906Z,989.08
2018-10-07T11:04:56.930Z,989.04
2018-10-07T11:05:56.878Z,989.04
2018-10-07T11:06:56.859Z,989.02
2018-10-07T11:07:56.850Z,989.04
2018-10-07T11:08:56.879Z,989.00
2018-10-07T11:09:57.486Z,988.92
2018-10-07T11:10:56.855Z,989.01
2018-10-07T11:11:56.820Z,988.97
2018-10-07T11:12:56.816Z,988.99
2018-10-07T11:13:56.986Z,988.99
2018-10-07T11:14:56.810Z,989.02
2018-10-07T11:15:56.976Z,989.03
2018-10-07T11:16:56.755Z,989.04
2018-10-07T11:17:56.744Z,989.07
2018-10-07T11:18:56.761Z,989.09
2018-10-07T11:19:56.785Z,989.11
2018-10-07T11:20:56.730Z,989.16
2018-10-07T11:21:56.708Z,989.10
2018-10-07T11:22:56.691Z,989.15
2018-10-07T11:23:57.304Z,989.09
2018-10-07T11:24:56.705Z,989.09
2018-10-07T11:25:56.657Z,989.10
2018-10-07T11:26:56.654Z,989.19
2018-10-07T11:27:56.641Z,989.20
2018-10-07T11:28:56.628Z,989.20
2018-10-07T11:29:56.642Z,989.16
2018-10-07T11:30:56.659Z,989.19
2018-10-07T11:31:56.686Z,989.31
2018-10-07T11:32:56.599Z,989.33
2018-10-07T11:33:56.587Z,989.29
2018-10-07T11:34:56.658Z,989.31
2018-10-07T11:35:56.565Z,989.25
2018-10-07T11:36:56.546Z,989.23
2018-10-07T11:37:56.530Z,989.16
2018-10-07T11:38:56.527Z,989.13
2018-10-07T11:39:56.527Z,989.26
2018-10-07T11:40:56.578Z,989.21
2018-10-07T11:41:56.517Z,989.16
2018-10-07T11:42:56.475Z,989.19
2018-10-07T11:43:56.556Z,989.12
2018-10-07T11:44:56.453Z,989.30
2018-10-07T11:45:56.465Z,989.24
2018-10-07T11:46:56.441Z,989.18
2018-10-07T11:47:56.439Z,989.15
2018-10-07T11:48:56.420Z,989.16
2018-10-07T11:49:56.410Z,989.12
2018-10-07T11:50:56.412Z,989.13
2018-10-07T11:51:56.386Z,989.13
2018-10-07T11:52:56.474Z,989.05
2018-10-07T11:53:56.363Z,989.01
2018-10-07T11:54:56.347Z,989.08
2018-10-07T11:55:56.356Z,989.08
2018-10-07T11:56:56.331Z,988.97
2018-10-07T11:57:56.326Z,988.99
2018-10-07T11:58:56.310Z,989.00
2018-10-07T11:59:56.308Z,988.99
2018-10-07T12:00:56.301Z,988.98
2018-10-07T12:01:56.282Z,988.97
2018-10-07T12:02:56.266Z,988.95
2018-10-07T12:03:56.256Z,988.90
2018-10-07T12:04:56.245Z,988.95
2018-10-07T12:05:56.258Z,988.89
2018-10-07T12:06:56.225Z,988.87
2018-10-07T12:07:56.221Z,988.91
2018-10-07T12:08:56.203Z,988.93
2018-10-07T12:09:56.193Z,988.93
2018-10-07T12:10:56.196Z,988.95
2018-10-07T12:11:56.229Z,988.93
2018-10-07T12:12:56.180Z,988.84
2018-10-07T12:13:56.245Z,988.85
2018-10-07T12:14:56.189Z,988.85
2018-10-07T12:15:56.139Z,988.85
2018-10-07T12:16:56.499Z,988.87
2018-10-07T12:17:56.107Z,988.84
2018-10-07T12:18:56.095Z,988.87
2018-10-07T12:19:56.088Z,988.86
2018-10-07T12:20:56.085Z,988.82
2018-10-07T12:21:56.065Z,988.86
2018-10-07T12:22:56.060Z,988.84
2018-10-07T12:23:56.063Z,988.82
2018-10-07T12:24:56.034Z,988.81
2018-10-07T12:25:56.056Z,988.79
2018-10-07T12:26:56.062Z,988.83
2018-10-07T12:27:56.009Z,988.86